Time;durP1;ratioP1;P1;durP2;ratioP2;P2;SDS_P1;SDS_P2;PMS_P1;PMS_P2;Temp;Humidity;BMP_temperature;BMP_pressure;BME280_temperature;BME280_humidity;BME280_pressure;Samples;Min_cycle;Max_cycle;Signal;HPM_P1;HPM_P2
2022/07/06 00:00:50;;;;;;;;;;;;;;;17.53;90.82;98137.81;4379601;32;19979;-84
2022/07/06 00:03:17;;;;;;;;;;;;;;;17.56;90.48;98136.81;4379746;32;20248;-84
2022/07/06 00:05:44;;;;;;;;;;;;;;;17.73;89.37;98136.47;4379617;32;19997;-84
2022/07/06 00:08:11;;;;;;;;;;;;;;;17.62;90.00;98139.81;4379473;32;20041;-84
2022/07/06 00:10:38;;;;;;;;;;;;;;;17.60;89.30;98146.06;4379636;32;20042;-84
2022/07/06 00:13:04;;;;;;;;;;;;;;;17.34;90.31;98156.53;4379636;32;19986;-84
2022/07/06 00:15:31;;;;;;;;;;;;;;;17.53;89.23;98150.03;4379102;32;19977;-84
2022/07/06 00:17:58;;;;;;;;;;;;;;;17.53;88.92;98153.47;4379557;32;20033;-84
2022/07/06 00:20:25;;;;;;;;;;;;;;;17.49;88.38;98141.59;4379304;32;19971;-84
2022/07/06 00:22:51;;;;;;;;;;;;;;;17.39;88.33;98148.37;4379203;32;20033;-84
2022/07/06 00:25:18;;;;;;;;;;;;;;;17.27;88.68;98141.41;4379278;32;20062;-84
2022/07/06 00:27:45;;;;;;;;;;;;;;;17.26;88.62;98144.97;4379587;32;19975;-84
2022/07/06 00:30:12;;;;;;;;;;;;;;;17.08;89.72;98152.25;4379098;32;19966;-85
2022/07/06 00:32:38;;;;;;;;;;;;;;;17.56;87.44;98148.06;4379390;32;20034;-84
2022/07/06 00:35:05;;;;;;;;;;;;;;;17.41;87.74;98156.94;4379235;32;20042;-84
2022/07/06 00:37:32;;;;;;;;;;;;;;;17.36;88.42;98159.03;4379138;32;20078;-84
2022/07/06 00:39:59;;;;;;;;;;;;;;;17.53;87.49;98158.69;4379289;32;19971;-84
2022/07/06 00:42:26;;;;;;;;;;;;;;;17.32;88.74;98161.00;4379131;32;19986;-84
2022/07/06 00:44:52;;;;;;;;;;;;;;;17.10;89.88;98166.00;4378741;32;19998;-84
2022/07/06 00:47:19;;;;;;;;;;;;;;;17.49;87.63;98159.84;4379267;32;20041;-84
2022/07/06 00:52:31;;;;;;;;;;;;;;;17.20;88.63;98163.63;4379304;32;20028;-84
2022/07/06 00:54:58;;;;;;;;;;;;;;;17.09;88.97;98160.91;4378946;32;20026;-84
2022/07/06 00:57:25;;;;;;;;;;;;;;;17.40;87.42;98155.28;4380271;32;19969;-84
2022/07/06 00:59:51;;;;;;;;;;;;;;;17.12;88.53;98150.25;4381171;32;20341;-84
2022/07/06 01:02:18;;;;;;;;;;;;;;;17.27;87.78;98144.03;4367625;32;20322;-84
2022/07/06 01:04:45;;;;;;;;;;;;;;;17.51;85.82;98138.88;4380718;32;19990;-84
2022/07/06 01:07:12;;;;;;;;;;;;;;;17.60;85.40;98144.28;4381127;32;19975;-84
2022/07/06 01:09:39;;;;;;;;;;;;;;;17.45;85.84;98154.97;4381047;32;19984;-84
2022/07/06 01:12:06;;;;;;;;;;;;;;;17.47;85.71;98153.91;4380704;32;20325;-84
2022/07/06 01:14:32;;;;;;;;;;;;;;;17.33;86.09;98157.47;4367566;32;19990;-84
2022/07/06 01:16:59;;;;;;;;;;;;;;;17.47;85.60;98163.53;4367621;32;20053;-84
2022/07/06 01:19:26;;;;;;;;;;;;;;;17.51;85.68;98154.53;4367012;32;20085;-83
2022/07/06 01:21:53;;;;;;;;;;;;;;;17.21;86.69;98152.25;4367500;32;19996;-84
2022/07/06 01:24:19;;;;;;;;;;;;;;;17.32;86.19;98154.97;4380986;32;20042;-84
2022/07/06 01:26:46;;;;;;;;;;;;;;;17.32;86.34;98160.16;4380666;32;20044;-84
2022/07/06 01:29:13;;;;;;;;;;;;;;;17.33;86.01;98165.31;4367512;32;19974;-84
2022/07/06 01:31:48;;;;;;;;;;;;;;;17.34;85.35;98158.31;4367149;32;20012;-84
2022/07/06 01:34:16;;;;;;;;;;;;;;;17.39;85.52;98151.00;4367304;32;20008;-84
2022/07/06 01:36:43;;;;;;;;;;;;;;;17.44;84.76;98150.66;4380785;32;20361;-84
2022/07/06 01:39:10;;;;;;;;;;;;;;;17.24;85.50;98162.50;4380643;32;19966;-84
2022/07/06 01:41:37;;;;;;;;;;;;;;;17.19;85.47;98159.34;4380872;32;20284;-84
2022/07/06 01:44:04;;;;;;;;;;;;;;;17.30;85.03;98157.69;4380837;32;20004;-84
2022/07/06 01:46:31;;;;;;;;;;;;;;;17.22;85.29;98162.56;4380403;32;19987;-84
2022/07/06 01:48:58;;;;;;;;;;;;;;;17.34;84.30;98166.97;4380925;32;19985;-84
2022/07/06 01:51:25;;;;;;;;;;;;;;;17.28;84.83;98171.75;4380746;32;20000;-84
2022/07/06 01:53:52;;;;;;;;;;;;;;;17.48;83.41;98175.62;4366952;32;20040;-84
2022/07/06 01:56:19;;;;;;;;;;;;;;;17.83;81.89;98179.25;4367018;32;19988;-84
2022/07/06 01:58:46;;;;;;;;;;;;;;;17.67;82.64;98178.63;4380852;32;19990;-84
2022/07/06 02:01:14;;;;;;;;;;;;;;;17.71;81.98;98169.66;4380334;32;19998;-84
2022/07/06 02:03:41;;;;;;;;;;;;;;;17.40;82.75;98170.09;4380751;32;19982;-84
2022/07/06 02:06:08;;;;;;;;;;;;;;;16.66;84.78;98171.53;4380472;32;20357;-84
2022/07/06 02:08:35;;;;;;;;;;;;;;;17.22;82.41;98177.38;4380494;32;20504;-84
2022/07/06 02:11:02;;;;;;;;;;;;;;;17.17;81.71;98179.47;4380611;32;19989;-84
2022/07/06 02:13:29;;;;;;;;;;;;;;;17.16;81.61;98176.03;4380664;32;19985;-84
2022/07/06 02:15:56;;;;;;;;;;;;;;;16.98;81.44;98172.03;4380089;32;20703;-84
2022/07/06 02:18:23;;;;;;;;;;;;;;;16.97;81.61;98175.59;4367251;32;20022;-84
2022/07/06 02:20:50;;;;;;;;;;;;;;;17.42;79.89;98186.47;4366893;32;20290;-84
2022/07/06 02:23:17;;;;;;;;;;;;;;;17.46;78.79;98183.56;4380318;32;19996;-84
2022/07/06 02:25:44;;;;;;;;;;;;;;;17.82;77.17;98189.81;4380395;32;20305;-84
2022/07/06 02:28:10;;;;;;;;;;;;;;;17.75;77.90;98199.00;4380435;32;20024;-84
2022/07/06 02:30:37;;;;;;;;;;;;;;;16.88;81.16;98199.66;4380504;32;20065;-84
2022/07/06 02:33:04;;;;;;;;;;;;;;;17.21;80.21;98205.22;4380579;32;20006;-84
2022/07/06 02:35:31;;;;;;;;;;;;;;;17.13;80.73;98204.09;4380070;32;20453;-84
2022/07/06 02:37:57;;;;;;;;;;;;;;;17.33;79.91;98203.56;4380639;32;20034;-84
2022/07/06 02:40:24;;;;;;;;;;;;;;;16.90;81.72;98206.44;4366972;32;20062;-84
2022/07/06 02:42:51;;;;;;;;;;;;;;;17.18;80.66;98208.06;4380191;32;20049;-84
2022/07/06 02:45:18;;;;;;;;;;;;;;;17.48;79.68;98212.13;4380186;32;19966;-84
2022/07/06 02:47:45;;;;;;;;;;;;;;;17.70;78.33;98208.94;4380614;32;20313;-84
2022/07/06 02:50:12;;;;;;;;;;;;;;;17.56;79.06;98222.91;4380070;32;19991;-84
2022/07/06 02:52:38;;;;;;;;;;;;;;;17.72;78.63;98223.53;4380543;32;20412;-84
2022/07/06 02:55:07;;;;;;;;;;;;;;;17.50;79.67;98226.75;4380241;32;19988;-84
2022/07/06 02:57:33;;;;;;;;;;;;;;;17.35;80.21;98227.78;4380140;32;19966;-84
2022/07/06 03:00:00;;;;;;;;;;;;;;;16.90;82.66;98229.88;4380352;32;20438;-84
2022/07/06 03:02:27;;;;;;;;;;;;;;;16.81;84.12;98224.47;4380433;32;20340;-84
2022/07/06 03:04:54;;;;;;;;;;;;;;;17.41;81.25;98218.69;4379784;32;20333;-84
2022/07/06 03:07:21;;;;;;;;;;;;;;;17.51;80.47;98217.13;4380394;32;19970;-84
2022/07/06 03:09:47;;;;;;;;;;;;;;;17.64;80.29;98216.19;4380214;32;20011;-84
2022/07/06 03:12:15;;;;;;;;;;;;;;;17.12;81.61;98216.31;4379872;32;20637;-84
2022/07/06 03:14:42;;;;;;;;;;;;;;;17.11;82.28;98217.22;4380158;32;19970;-83
2022/07/06 03:17:09;;;;;;;;;;;;;;;16.76;83.49;98196.91;4380351;32;20034;-84
2022/07/06 03:19:36;;;;;;;;;;;;;;;16.73;83.81;98194.53;4379043;32;20317;-83
2022/07/06 03:22:03;;;;;;;;;;;;;;;16.96;83.14;98198.22;4366884;32;20061;-84
2022/07/06 03:24:30;;;;;;;;;;;;;;;17.10;82.05;98201.66;4379770;32;20037;-84
2022/07/06 03:26:57;;;;;;;;;;;;;;;16.77;83.28;98195.16;4380198;32;20009;-84
2022/07/06 03:29:23;;;;;;;;;;;;;;;16.71;82.92;98185.16;4380157;32;20045;-84
2022/07/06 03:31:50;;;;;;;;;;;;;;;16.86;82.47;98184.12;4379786;32;20293;-84
2022/07/06 03:34:17;;;;;;;;;;;;;;;16.94;81.92;98175.81;4379935;32;19999;-84
2022/07/06 03:36:44;;;;;;;;;;;;;;;16.81;82.42;98175.78;4379992;32;19988;-84
2022/07/06 03:39:10;;;;;;;;;;;;;;;16.67;83.19;98168.81;4379889;32;20020;-84
2022/07/06 03:41:37;;;;;;;;;;;;;;;17.15;80.96;98183.97;4380116;32;19985;-84
2022/07/06 03:44:04;;;;;;;;;;;;;;;17.01;80.98;98175.31;4379915;32;20014;-84
2022/07/06 03:46:31;;;;;;;;;;;;;;;17.13;80.54;98178.03;4379567;32;19997;-84
2022/07/06 03:48:57;;;;;;;;;;;;;;;17.13;79.96;98178.03;4380077;32;20042;-84
2022/07/06 03:51:24;;;;;;;;;;;;;;;17.33;79.14;98182.69;4379822;32;20034;-84
2022/07/06 03:53:51;;;;;;;;;;;;;;;17.70;77.40;98167.19;4379583;32;19977;-84
2022/07/06 03:56:30;;;;;;;;;;;;;;;18.10;75.15;98170.44;4379778;32;20001;-84
2022/07/06 03:58:57;;;;;;;;;;;;;;;18.48;73.89;98172.88;4379867;32;20592;-84
2022/07/06 04:01:24;;;;;;;;;;;;;;;18.68;72.20;98164.44;4379526;32;20049;-84
2022/07/06 04:03:51;;;;;;;;;;;;;;;18.73;71.32;98151.06;4379809;32;20306;-84
2022/07/06 04:06:17;;;;;;;;;;;;;;;18.94;70.72;98161.69;4379576;32;20223;-84
2022/07/06 04:08:44;;;;;;;;;;;;;;;19.36;69.32;98155.00;4379538;32;19983;-84
2022/07/06 04:11:11;;;;;;;;;;;;;;;19.11;68.50;98147.31;4379763;32;19978;-84
2022/07/06 04:13:38;;;;;;;;;;;;;;;19.57;67.00;98150.75;4379352;32;19989;-84
2022/07/06 04:16:06;;;;;;;;;;;;;;;19.78;65.87;98155.22;4379507;32;20022;-85
2022/07/06 04:18:33;;;;;;;;;;;;;;;19.70;66.17;98142.75;4379774;32;19982;-84
2022/07/06 04:21:00;;;;;;;;;;;;;;;19.91;65.32;98140.25;4379024;32;20273;-84
2022/07/06 04:23:26;;;;;;;;;;;;;;;20.22;64.32;98136.84;4379556;32;20048;-84
2022/07/06 04:25:53;;;;;;;;;;;;;;;20.40;63.79;98131.03;4379317;32;19966;-84
2022/07/06 04:28:20;;;;;;;;;;;;;;;20.62;62.96;98125.75;4379208;32;20006;-84
2022/07/06 04:30:47;;;;;;;;;;;;;;;20.87;61.79;98131.59;4379446;32;19982;-84
2022/07/06 04:33:14;;;;;;;;;;;;;;;21.06;61.54;98135.19;4381455;32;20026;-84
2022/07/06 04:35:41;;;;;;;;;;;;;;;21.17;61.04;98138.69;4380813;32;19978;-84
2022/07/06 04:38:07;;;;;;;;;;;;;;;21.16;61.33;98122.12;4381485;32;19978;-85
2022/07/06 04:40:34;;;;;;;;;;;;;;;21.32;61.01;98140.03;4368000;32;20034;-84
2022/07/06 04:43:01;;;;;;;;;;;;;;;21.03;62.24;98139.81;4380924;32;20052;-84
2022/07/06 04:45:28;;;;;;;;;;;;;;;21.25;61.81;98144.91;4381069;32;20037;-84
2022/07/06 04:47:55;;;;;;;;;;;;;;;21.43;60.82;98147.00;4381349;32;20033;-84
2022/07/06 04:50:21;;;;;;;;;;;;;;;21.69;60.40;98144.72;4380929;32;20018;-84
2022/07/06 04:52:48;;;;;;;;;;;;;;;21.69;60.99;98144.72;4381094;32;19981;-84
2022/07/06 04:55:15;;;;;;;;;;;;;;;21.63;62.23;98167.94;4381059;32;19980;-84
2022/07/06 04:57:42;;;;;;;;;;;;;;;21.65;61.90;98171.25;4381027;32;20613;-84
2022/07/06 05:00:09;;;;;;;;;;;;;;;21.85;61.34;98163.47;4381225;32;20432;-84
2022/07/06 05:02:36;;;;;;;;;;;;;;;21.77;61.85;98160.66;4380902;32;19988;-84
2022/07/06 05:05:03;;;;;;;;;;;;;;;21.90;62.13;98153.38;4380971;32;20377;-83
2022/07/06 05:07:33;;;;;;;;;;;;;;;22.26;61.27;98170.38;4381336;32;20023;-84
2022/07/06 05:10:00;;;;;;;;;;;;;;;21.70;63.21;98168.25;4380877;32;20321;-84
2022/07/06 05:12:26;;;;;;;;;;;;;;;22.27;61.05;98173.84;4380930;32;20025;-84
2022/07/06 05:14:53;;;;;;;;;;;;;;;22.14;61.31;98172.28;4380869;32;20420;-83
2022/07/06 05:17:20;;;;;;;;;;;;;;;22.63;60.15;98190.75;4380786;32;20004;-84
2022/07/06 05:19:54;;;;;;;;;;;;;;;22.67;59.65;98189.53;4380884;32;19978;-84
2022/07/06 05:22:21;;;;;;;;;;;;;;;22.46;60.42;98185.22;4381154;32;19978;-84
2022/07/06 05:24:48;;;;;;;;;;;;;;;22.35;61.44;98200.28;4380475;32;20014;-83
2022/07/06 05:27:14;;;;;;;;;;;;;;;22.36;61.47;98202.78;4381082;32;19982;-84
2022/07/06 05:29:41;;;;;;;;;;;;;;;22.44;61.52;98202.09;4380994;32;19998;-84
2022/07/06 05:32:08;;;;;;;;;;;;;;;22.73;61.08;98200.31;4380922;32;20049;-84
2022/07/06 05:34:36;;;;;;;;;;;;;;;22.86;59.87;98197.41;4380893;32;20317;-83
2022/07/06 05:37:03;;;;;;;;;;;;;;;22.89;60.12;98197.16;4367739;32;20045;-84
2022/07/06 05:39:30;;;;;;;;;;;;;;;22.62;61.24;98195.19;4380776;32;20026;-84
2022/07/06 05:41:56;;;;;;;;;;;;;;;22.73;61.02;98196.84;4380575;32;19988;-84
2022/07/06 05:44:23;;;;;;;;;;;;;;;23.21;59.76;98194.22;4381074;32;19982;-84
2022/07/06 05:46:50;;;;;;;;;;;;;;;22.88;60.05;98194.69;4380671;32;20344;-84
2022/07/06 05:52:02;;;;;;;;;;;;;;;22.88;59.58;98192.88;4380818;32;20041;-84
2022/07/06 05:54:29;;;;;;;;;;;;;;;23.67;57.56;98192.59;4367423;32;19981;-83
2022/07/06 05:56:56;;;;;;;;;;;;;;;23.34;57.80;98204.44;4381225;32;20005;-84
2022/07/06 05:59:22;;;;;;;;;;;;;;;23.28;58.27;98197.09;4380943;32;20029;-83
2022/07/06 06:01:49;;;;;;;;;;;;;;;22.91;58.70;98189.97;4381412;32;19990;-84
2022/07/06 06:04:16;;;;;;;;;;;;;;;23.35;58.39;98196.41;4381331;32;19971;-85
2022/07/06 06:06:43;;;;;;;;;;;;;;;23.44;57.35;98201.78;4381192;32;19977;-84
2022/07/06 06:09:10;;;;;;;;;;;;;;;23.41;57.27;98202.09;4381855;32;19996;-83
2022/07/06 06:11:36;;;;;;;;;;;;;;;23.38;57.12;98209.28;4381058;32;20061;-84
2022/07/06 06:14:04;;;;;;;;;;;;;;;23.39;56.68;98210.09;4380827;32;19978;-83
2022/07/06 06:16:30;;;;;;;;;;;;;;;23.78;55.43;98200.31;4380872;32;20004;-85
2022/07/06 06:18:57;;;;;;;;;;;;;;;23.64;56.18;98198.16;4381324;32;20322;-85
2022/07/06 06:21:24;;;;;;;;;;;;;;;23.60;55.57;98208.13;4380538;32;19984;-85
2022/07/06 06:23:51;;;;;;;;;;;;;;;23.55;55.67;98188.44;4380662;32;20046;-87
2022/07/06 06:26:17;;;;;;;;;;;;;;;23.42;55.43;98198.47;4380400;32;20332;-88
2022/07/06 06:28:44;;;;;;;;;;;;;;;23.60;55.38;98197.59;4367071;32;19990;-83
2022/07/06 06:31:11;;;;;;;;;;;;;;;23.67;55.01;98203.97;4380800;32;20343;-83
2022/07/06 06:33:38;;;;;;;;;;;;;;;23.75;54.83;98208.53;4380801;32;20037;-84
2022/07/06 06:36:05;;;;;;;;;;;;;;;24.01;53.98;98202.56;4381661;32;19982;-83
2022/07/06 06:38:32;;;;;;;;;;;;;;;24.30;52.17;98215.59;4381775;32;19982;-82
2022/07/06 06:40:58;;;;;;;;;;;;;;;24.11;51.31;98209.44;4381725;32;20065;-82
2022/07/06 06:43:25;;;;;;;;;;;;;;;24.09;51.99;98210.59;4367784;32;19957;-81
2022/07/06 06:45:52;;;;;;;;;;;;;;;24.27;51.71;98208.81;4380490;32;20005;-81
2022/07/06 06:48:19;;;;;;;;;;;;;;;24.52;51.60;98213.41;4380790;32;19986;-83
2022/07/06 06:50:46;;;;;;;;;;;;;;;24.31;51.10;98214.66;4381364;32;19987;-81
2022/07/06 06:53:12;;;;;;;;;;;;;;;24.32;50.81;98208.41;4381251;32;20556;-83
2022/07/06 06:55:39;;;;;;;;;;;;;;;24.25;50.59;98216.06;4366813;32;19997;-84
2022/07/06 06:58:06;;;;;;;;;;;;;;;24.10;50.58;98207.78;4380229;32;20000;-82
2022/07/06 07:00:33;;;;;;;;;;;;;;;24.17;49.94;98208.06;4380296;32;19993;-82
2022/07/06 07:03:00;;;;;;;;;;;;;;;24.04;50.05;98220.75;4379789;32;19988;-82
2022/07/06 07:17:16;;;;;;;;;;;;;;;24.33;49.09;98239.06;4380569;32;20607;-83
2022/07/06 07:19:42;;;;;;;;;;;;;;;24.31;49.22;98239.22;4382649;32;20002;-83
2022/07/06 07:22:09;;;;;;;;;;;;;;;24.61;46.95;98224.03;4381605;32;19970;-84
2022/07/06 07:31:19;;;;;;;;;;;;;;;25.33;44.51;98226.53;4379994;32;20013;-84
2022/07/06 07:33:46;;;;;;;;;;;;;;;25.49;42.97;98236.34;4380387;32;20450;-86
2022/07/06 07:36:14;;;;;;;;;;;;;;;25.71;43.58;98239.50;4385242;32;19967;-82
2022/07/06 07:38:41;;;;;;;;;;;;;;;25.99;44.59;98238.34;4387045;32;20029;-83
2022/07/06 07:41:08;;;;;;;;;;;;;;;26.33;41.40;98235.66;4384837;32;19955;-82
2022/07/06 07:43:34;;;;;;;;;;;;;;;25.54;44.19;98242.03;4382464;32;20322;-83
2022/07/06 07:49:21;;;;;;;;;;;;;;;26.10;42.02;98240.69;4380806;32;20041;-84
2022/07/06 07:51:48;;;;;;;;;;;;;;;26.03;42.32;98247.59;4379971;32;19970;-83
2022/07/06 07:54:15;;;;;;;;;;;;;;;26.27;42.47;98246.06;4366542;32;20053;-83
2022/07/06 08:00:04;;;;;;;;;;;;;;;26.21;42.47;98258.09;4379512;32;20024;-84
2022/07/06 08:02:31;;;;;;;;;;;;;;;26.75;41.58;98255.97;4379670;32;20049;-84
2022/07/06 08:11:18;;;;;;;;;;;;;;;26.27;42.65;98273.34;4379615;32;20024;-86
2022/07/06 08:13:45;;;;;;;;;;;;;;;26.21;42.03;98277.44;4379515;32;20038;-86
2022/07/06 08:19:30;;;;;;;;;;;;;;;26.31;41.78;98276.50;4379540;32;20434;-86
2022/07/06 08:21:57;;;;;;;;;;;;;;;27.25;39.67;98268.31;4364647;32;20018;-85
2022/07/06 08:24:24;;;;;;;;;;;;;;;27.60;39.94;98280.38;4365136;32;20006;-85
2022/07/06 08:26:51;;;;;;;;;;;;;;;27.62;38.20;98281.84;4364778;32;20042;-85
2022/07/06 08:29:17;;;;;;;;;;;;;;;26.92;39.68;98284.16;4364939;32;20436;-84
2022/07/06 08:31:44;;;;;;;;;;;;;;;27.61;38.89;98282.84;4364763;32;19978;-84
2022/07/06 08:34:21;;;;;;;;;;;;;;;28.02;37.17;98293.41;4359802;32;20037;-85
2022/07/06 08:36:48;;;;;;;;;;;;;;;27.30;36.60;98289.81;4364595;32;20005;-85
2022/07/06 08:39:15;;;;;;;;;;;;;;;27.53;37.48;98282.84;4364671;32;20103;-85
2022/07/06 08:41:43;;;;;;;;;;;;;;;27.40;38.55;98287.84;4364749;32;20428;-84
2022/07/06 08:44:09;;;;;;;;;;;;;;;28.08;37.31;98292.75;4351617;32;19986;-85
2022/07/06 08:49:55;;;;;;;;;;;;;;;28.31;35.33;98282.25;4364392;32;19985;-83
2022/07/06 08:52:25;;;;;;;;;;;;;;;26.84;36.46;98292.06;4364209;32;20026;-84
2022/07/06 09:07:45;;;;;;;;;;;;;;;27.69;36.59;98300.59;4365000;32;20344;-83
2022/07/06 09:10:26;;;;;;;;;;;;;;;28.22;36.01;98307.13;4352337;32;20029;-84
2022/07/06 09:12:53;;;;;;;;;;;;;;;28.15;35.87;98306.12;4365746;32;20005;-84
2022/07/06 09:18:50;;;;;;;;;;;;;;;28.56;34.80;98284.78;4370239;32;20000;-84
2022/07/06 09:21:27;;;;;;;;;;;;;;;28.53;35.11;98305.38;4369704;32;19950;-84
2022/07/06 09:23:58;;;;;;;;;;;;;;;28.40;34.77;98320.19;4368575;32;20024;-84
2022/07/06 09:29:34;;;;;;;;;;;;;;;28.17;34.16;98304.97;4369799;32;19996;-83
2022/07/06 09:32:01;;;;;;;;;;;;;;;27.26;34.19;98302.56;4368263;32;20045;-84
2022/07/06 09:40:48;;;;;;;;;;;;;;;28.46;33.71;98307.03;4368660;32;20029;-84
2022/07/06 09:43:19;;;;;;;;;;;;;;;28.38;34.55;98303.59;4367046;32;19997;-85
2022/07/06 09:49:01;;;;;;;;;;;;;;;27.85;35.01;98305.88;4366577;32;20316;-84
2022/07/06 09:51:30;;;;;;;;;;;;;;;28.06;35.29;98300.03;4365639;32;20033;-84
2022/07/06 09:53:58;;;;;;;;;;;;;;;28.24;34.37;98305.12;4365539;32;19982;-86
2022/07/06 09:59:44;;;;;;;;;;;;;;;29.34;33.50;98305.88;4365458;32;20000;-86
2022/07/06 10:02:13;;;;;;;;;;;;;;;29.27;33.89;98316.41;4365622;32;20027;-86
2022/07/06 10:10:59;;;;;;;;;;;;;;;28.96;31.98;98328.91;4365507;32;19998;-86
2022/07/06 10:13:25;;;;;;;;;;;;;;;29.01;32.12;98327.38;4351822;32;20001;-86
2022/07/06 10:19:11;;;;;;;;;;;;;;;29.93;33.64;98317.50;4366021;32;20033;-86
2022/07/06 10:21:38;;;;;;;;;;;;;;;28.94;34.82;98323.78;4365373;32;19978;-86
2022/07/06 10:24:05;;;;;;;;;;;;;;;29.24;36.21;98315.91;4365341;32;19978;-86
2022/07/06 10:32:20;;;;;;;;;;;;;;;28.91;35.78;98318.78;4365271;32;20013;-86
2022/07/06 10:41:07;;;;;;;;;;;;;;;28.95;34.38;98327.25;4365151;32;20071;-86
2022/07/06 10:43:35;;;;;;;;;;;;;;;29.35;32.29;98328.81;4365356;32;20030;-85
2022/07/06 10:49:23;;;;;;;;;;;;;;;29.81;34.01;98326.94;4365394;32;19988;-86
2022/07/06 10:52:10;;;;;;;;;;;;;;;30.16;34.54;98312.12;4365101;32;19979;-85
2022/07/06 11:01:21;;;;;;;;;;;;;;;28.69;34.54;98325.69;4365364;32;20340;-85
2022/07/06 11:03:57;;;;;;;;;;;;;;;29.25;34.19;98321.06;4366434;32;19985;-85
2022/07/06 11:09:32;;;;;;;;;;;;;;;28.85;30.46;98334.59;4365031;32;20222;-82
2022/07/06 11:11:59;;;;;;;;;;;;;;;27.92;33.99;98335.19;4364958;32;20322;-83
2022/07/06 11:14:29;;;;;;;;;;;;;;;28.36;35.08;98338.25;4351273;32;20310;-84
2022/07/06 11:17:03;;;;;;;;;;;;;;;28.37;34.24;98333.78;4352902;32;20021;-83
2022/07/06 11:19:31;;;;;;;;;;;;;;;27.78;34.67;98346.50;4365144;32;19983;-84
2022/07/06 11:22:07;;;;;;;;;;;;;;;27.60;33.24;98331.56;4364779;32;20038;-84
2022/07/06 11:31:18;;;;;;;;;;;;;;;27.57;33.92;98337.19;4365109;32;20049;-84
2022/07/06 11:35:22;;;;;;;4.95;2.42;;;;;;;26.90;37.58;98335.56;4548927;31;156284;-82
2022/07/06 11:37:49;;;;;;;5.28;2.50;;;;;;;26.90;37.58;98335.56;4546896;31;20150;-83
2022/07/06 11:40:18;;;;;;;3.65;2.10;;;;;;;26.96;37.18;98341.06;4547059;31;20102;-83
2022/07/06 11:42:54;;;;;;;6.10;2.20;;;;;;;27.02;35.13;98335.16;4546848;31;20123;-83
2022/07/06 11:45:27;;;;;;;3.85;2.20;;;;;;;26.57;34.30;98347.87;4530995;31;20114;-83
2022/07/06 11:48:09;;;;;;;5.35;2.10;;;;;;;27.77;34.54;98342.19;4531045;31;20409;-83
2022/07/06 11:50:36;;;;;;;5.00;2.20;;;;;;;27.76;34.65;98345.84;4530914;31;20115;-83
2022/07/06 11:53:03;;;;;;;4.07;2.40;;;;;;;28.31;33.66;98340.63;4530944;31;20460;-84
2022/07/06 11:55:30;;;;;;;6.85;2.60;;;;;;;28.48;34.63;98339.53;4530667;31;20167;-84
2022/07/06 11:57:57;;;;;;;6.45;2.40;;;;;;;28.00;34.92;98339.69;4530522;31;20095;-83
2022/07/06 12:00:24;;;;;;;5.35;2.33;;;;;;;27.76;34.49;98344.03;4516586;31;20103;-83
2022/07/06 12:03:01;;;;;;;5.37;2.10;;;;;;;27.68;34.21;98333.41;4530863;31;20127;-84
2022/07/06 12:05:31;;;;;;;4.80;2.20;;;;;;;27.04;35.09;98327.88;4516086;31;20104;-84
2022/07/06 12:08:05;;;;;;;3.58;2.15;;;;;;;27.78;34.09;98323.47;4503319;31;20111;-84
2022/07/06 12:10:37;;;;;;;6.50;2.30;;;;;;;28.11;32.83;98321.56;4530715;31;20079;-82
2022/07/06 12:13:04;;;;;;;3.47;2.12;;;;;;;28.68;32.80;98315.25;4530680;31;20171;-83
2022/07/06 12:15:32;;;;;;;4.93;2.30;;;;;;;28.79;32.22;98325.47;4530601;31;20672;-82
2022/07/06 12:17:59;;;;;;;4.62;2.00;;;;;;;28.81;31.61;98318.16;4530388;31;20108;-83
2022/07/06 12:20:27;;;;;;;4.82;2.62;;;;;;;28.98;31.01;98318.94;4530701;31;20071;-83
2022/07/06 12:23:03;;;;;;;4.82;2.15;;;;;;;28.82;32.67;98317.19;4516220;31;20092;-83
2022/07/06 12:25:31;;;;;;;;;;;;;;;28.69;32.35;98312.41;4530753;31;20100;-83
2022/07/06 12:27:58;;;;;;;4.07;2.30;;;;;;;28.34;31.81;98316.37;4530649;31;20050;-82
2022/07/06 12:30:25;;;;;;;4.78;2.20;;;;;;;28.90;31.80;98306.50;4530604;31;20083;-82
2022/07/06 12:33:14;;;;;;;4.55;2.30;;;;;;;29.00;31.83;98317.75;4530457;31;20119;-83
2022/07/06 12:35:44;;;;;;;7.57;2.50;;;;;;;29.65;32.15;98314.59;4530804;31;20174;-81
2022/07/06 12:38:12;;;;;;;4.20;2.28;;;;;;;29.26;32.21;98311.28;4530486;31;20369;-80
2022/07/06 12:40:39;;;;;;;5.10;2.35;;;;;;;28.71;30.80;98297.16;4530117;31;20088;-80
2022/07/06 12:43:06;;;;;;;3.45;2.20;;;;;;;28.62;31.18;98300.84;4516058;31;20075;-81
2022/07/06 12:45:33;;;;;;;5.90;2.20;;;;;;;28.11;32.10;98302.19;4524501;31;20115;-80
2022/07/06 12:48:02;;;;;;;6.68;2.37;;;;;;;28.70;31.41;98297.31;4519565;31;20402;-79
2022/07/06 12:50:38;;;;;;;4.60;2.20;;;;;;;29.83;30.15;98303.66;4519827;31;20166;-79
2022/07/06 12:53:24;;;;;;;4.07;2.08;;;;;;;30.27;28.91;98294.06;4519391;31;20162;-80
2022/07/06 12:56:13;;;;;;;4.55;2.25;;;;;;;30.59;29.19;98298.16;4519675;31;20155;-80
2022/07/06 12:59:00;;;;;;;6.22;2.30;;;;;;;29.94;30.01;98289.06;4519688;31;20110;-80
2022/07/06 13:01:27;;;;;;;4.75;2.62;;;;;;;30.41;29.76;98291.41;4519415;31;20452;-82
2022/07/06 13:03:56;;;;;;;6.20;2.10;;;;;;;30.26;29.65;98289.75;4519690;31;20080;-82
2022/07/06 13:06:34;;;;;;;4.35;2.10;;;;;;;29.70;29.87;98295.47;4505223;31;20108;-81
2022/07/06 13:09:01;;;;;;;4.00;2.05;;;;;;;29.06;28.58;98282.53;4519466;31;20134;-83
2022/07/06 13:11:28;;;;;;;3.15;2.00;;;;;;;29.07;28.57;98289.47;4505785;31;20174;-82
2022/07/06 13:13:55;;;;;;;3.00;1.90;;;;;;;28.88;28.80;98287.28;4518541;31;20146;-80
2022/07/06 13:16:24;;;;;;;4.80;2.15;;;;;;;28.89;29.04;98294.25;4519226;31;20155;-82
2022/07/06 13:18:51;;;;;;;5.95;2.08;;;;;;;29.19;28.95;98300.53;4519556;31;20105;-81
2022/07/06 13:21:18;;;;;;;5.40;2.47;;;;;;;28.89;29.08;98298.72;4519240;31;20103;-80
2022/07/06 13:23:45;;;;;;;6.07;2.40;;;;;;;28.73;30.96;98296.97;4519538;31;20505;-81
2022/07/06 13:26:12;;;;;;;7.90;2.40;;;;;;;28.92;30.81;98298.38;4519406;31;20449;-81
2022/07/06 13:28:39;;;;;;;4.47;2.20;;;;;;;28.73;29.98;98300.47;4504987;31;20119;-82
2022/07/06 13:31:06;;;;;;;4.30;2.20;;;;;;;27.56;31.55;98293.13;4519512;31;20524;-80
2022/07/06 13:33:38;;;;;;;3.17;2.08;;;;;;;27.30;32.76;98297.78;4519459;31;20520;-80
2022/07/06 13:36:05;;;;;;;5.85;2.20;;;;;;;27.66;31.75;98293.00;4518950;31;20119;-81
2022/07/06 13:38:32;;;;;;;3.60;2.30;;;;;;;28.21;31.46;98287.72;4519464;31;20087;-79
2022/07/06 13:40:59;;;;;;;5.87;2.62;;;;;;;28.70;31.15;98292.81;4519516;31;20088;-80
2022/07/06 13:43:35;;;;;;;3.62;2.20;;;;;;;27.84;31.55;98301.56;4519058;31;20076;-80
2022/07/06 13:46:07;;;;;;;5.03;2.33;;;;;;;27.30;32.74;98305.72;4519432;31;20152;-81
2022/07/06 13:48:34;;;;;;;4.07;2.10;;;;;;;27.90;31.41;98310.69;4519604;31;20152;-79
2022/07/06 13:51:01;;;;;;;4.28;2.10;;;;;;;27.46;31.33;98302.25;4519070;31;20099;-79
2022/07/06 13:53:28;;;;;;;5.57;2.53;;;;;;;27.62;32.45;98312.84;4519259;31;20072;-78
2022/07/06 13:55:55;;;;;;;4.82;2.42;;;;;;;27.93;31.49;98315.63;4518827;31;20123;-79
2022/07/06 13:58:22;;;;;;;5.25;2.22;;;;;;;27.53;32.00;98314.66;4518391;31;20167;-80
2022/07/06 14:00:49;;;;;;;7.55;2.90;;;;;;;27.71;32.78;98332.25;4519530;31;20108;-80
2022/07/06 14:03:16;;;;;;;7.40;3.35;;;;;;;26.95;40.21;98338.59;4519090;31;20072;-79
2022/07/06 14:05:43;;;;;;;7.87;3.17;;;;;;;26.31;43.22;98354.03;4519111;31;20157;-79
2022/07/06 14:08:10;;;;;;;8.38;3.40;;;;;;;25.95;44.77;98337.47;4519279;31;20464;-79
2022/07/06 14:10:37;;;;;;;7.53;3.20;;;;;;;25.52;47.05;98344.38;4518912;31;20076;-78
2022/07/06 14:13:04;;;;;;;10.68;3.83;;;;;;;24.80;50.81;98337.38;4519198;31;20134;-79
2022/07/06 14:15:31;;;;;;;7.32;3.50;;;;;;;24.26;56.54;98359.25;4519096;31;20557;-78
2022/07/06 14:17:58;;;;;;;7.90;3.67;;;;;;;23.90;58.31;98353.78;4519075;31;20159;-78
2022/07/06 14:20:26;;;;;;;8.82;4.18;;;;;;;23.16;61.71;98350.88;4505046;31;20424;-78
2022/07/06 14:22:52;;;;;;;6.45;3.83;;;;;;;23.04;65.37;98363.34;4519182;31;20096;-78
2022/07/06 14:25:20;;;;;;;11.32;3.80;;;;;;;23.22;62.27;98360.88;4518794;31;20155;-78
2022/07/06 14:27:47;;;;;;;9.63;4.57;;;;;;;22.99;62.19;98361.13;4519430;31;20110;-78
2022/07/06 14:30:14;;;;;;;6.97;3.78;;;;;;;23.21;62.01;98360.06;4519244;31;20143;-78